| Place | Name | Time | Raw score | Score |
|---|---|---|---|---|
| 1 | -DarkLlama- | 1:16.45 | 1,000 | 358 |
| 2 | Ferreus | 1:17.21 | 900 | 322 |
| 3 | Terrapin | 1:18.20 | 859 | 308 |
| 4 | XiQu3sT | 1:19.48 | 827 | 296 |
| 5 | Freud | 1:20.12 | 800 | 287 |
| 6 | Jay2a | 1:24.30 | 777 | 278 |
| 7 | KnightBane | 1:24.74 | 756 | 271 |
| 8 | Kinix | 1:25.00 | 736 | 264 |
| 9 | Brionac | 1:25.55 | 718 | 257 |
| 10 | Kenaz | 1:26.38 | 700 | 251 |
| 11 | IllKIllU | 1:28.33 | 684 | 245 |
| 12 | lefor0416 | 1:28.83 | 669 | 240 |
| 13 | The Blue Fox | 1:35.80 | 654 | 234 |
| 14 | A Moldy Orange | 1:36.10 | 640 | 229 |
| 15 | Erik | 1:36.66 | 626 | 224 |
| 16 | Winter's Crescendo | 1:36.74 | 613 | 220 |
| 17 | Hotride | 1:36.90 | 600 | 215 |
| 18 | ThumpieBunnyEve | 1:37.06 | 588 | 211 |
| 19 | Zany | 1:37.96 | 576 | 206 |
| 20 | Azure Zakura | 1:39.47 | 565 | 202 |
| 21 | Tribow | 1:41.42 | 553 | 198 |
| 22 | Dreigo | 1:42.04 | 542 | 194 |
| 23 | posture check | 1:42.52 | 531 | 190 |
| 24 | ReallyDumbFox | 1:42.66 | 521 | 187 |
| 25 | Waonder | 1:43.14 | 511 | 183 |
| 26 | Sidewinder Fang | 1:43.17 | 500 | 179 |
| 27 | Mei Rummy-chan | 1:43.36 | 491 | 176 |
| 28 | BoreasTheIceGod | 1:43.44 | 481 | 172 |
| 29 | Bridge | 1:43.85 | 471 | 169 |
| 30 | Minecraft-pro | 1:43.89 | 462 | 166 |
| 31 | Plasmawario | 1:44.68 | 453 | 162 |
| 32 | Paparazzi | 1:44.91 | 444 | 159 |
| 33 | NicholasKB19 | 1:45.16 | 435 | 156 |
| 34 | RaiderZulu | 1:45.34 | 426 | 153 |
| 35 | JayBoneJay | 1:45.44 | 417 | 149 |
| 36 | kriz_chan | 1:45.45 | 409 | 147 |
| 37 | FluffyTheZombii | 1:45.62 | 400 | 143 |
| 38 | Bile | 1:45.71 | 392 | 140 |
| 39 | Roboraser | 1:45.81 | 384 | 138 |
| 40 | RenZõÓ | 1:45.82 | 376 | 135 |
| 41 | McFolt | 1:45.84 | 368 | 132 |
| 42 | Yarimi | 1:45.90 | 360 | 129 |
| 43 | BOOMBOX_PENGUIN | 1:45.91 | 352 | 126 |
| 44 | Eagl3 | 1:45.98 | 345 | 124 |
| 45 | Warriot | 1:46.01 | 337 | 121 |
| 46 | Angelica | 1:46.03 | 330 | 118 |
| 47 | TheMelonGod | 1:46.08 | 322 | 115 |
| 47 | Waltuh White | 1:46.08 | 322 | 115 |
| 49 | matheus paiva | 1:46.15 | 308 | 110 |
| 50 | Seekr | 1:46.18 | 300 | 107 |
| 51 | PathToV1ctory | 1:46.19 | 293 | 105 |
| 52 | Arika Springfield | 1:46.20 | 286 | 102 |
| 53 | Overlord | 1:46.24 | 279 | 100 |
| 54 | Ohnoitsmangofett | 1:46.25 | 272 | 97 |
| 54 | PinesOfChaos | 1:46.25 | 272 | 97 |
| 56 | Ebeta2 | 1:46.28 | 259 | 93 |
| 57 | mobiusosea | 1:46.31 | 252 | 90 |
| 58 | DrSexyMD | 1:46.37 | 246 | 88 |
| 59 | Kaliphear | 1:46.38 | 239 | 86 |
| 59 | Quirked-up White Boy | 1:46.38 | 239 | 86 |
| 61 | Toats | 1:46.40 | 226 | 81 |
| 61 | Saberik | 1:46.40 | 226 | 81 |
| 63 | GaiaGaiyus | 1:46.44 | 213 | 76 |
| 64 | Mr. Doggy | 1:46.45 | 207 | 74 |
| 64 | Terr4 | 1:46.45 | 207 | 74 |
| 66 | Shady Inktail | 1:46.48 | 194 | 70 |
| 66 | jason | 1:46.48 | 194 | 70 |
| 68 | Californ1a | 1:46.51 | 182 | 65 |
| 69 | Luminous | 1:46.52 | 176 | 63 |
| 70 | ZedAxiom | 1:46.56 | 170 | 61 |
| 71 | TinFoilMkIV | 1:46.57 | 164 | 59 |
| 72 | Depth | 1:46.59 | 158 | 57 |
| 72 | Xenith78 | 1:46.59 | 158 | 57 |
| 74 | Zephyrous | 1:46.60 | 146 | 52 |
| 75 | XLgeneral | 1:46.64 | 140 | 50 |
| 75 | to saw a sponge bob saw | 1:46.64 | 140 | 50 |
| 77 | Neko | 1:46.66 | 129 | 46 |
| 78 | Puppy World!! | 1:46.73 | 123 | 44 |
| 79 | Moonie | 1:46.84 | 117 | 42 |
| 80 | JankyDingus | 1:46.88 | 112 | 40 |
| 81 | Jacket | 1:46.90 | 106 | 38 |
| 82 | Tem | 1:46.91 | 100 | 36 |
| 83 | Fettu | 1:46.95 | 95 | 34 |
| 84 | CHAINSAW MONKEY! | 1:47.02 | 89 | 32 |
| 85 | The Unusual Suspect | 1:47.06 | 84 | 30 |
| 86 | Krispy | 1:47.09 | 79 | 28 |
| 87 | Gyodesis | 1:47.19 | 73 | 26 |
| 88 | TheEvilMidnightBomber | 1:47.27 | 68 | 24 |
| 89 | Beastmaster 64 | 1:47.31 | 62 | 22 |
| 90 | Western Ice Noodle | 1:47.32 | 57 | 20 |
| 91 | I SMASH ROCKS | 1:47.34 | 52 | 19 |
| 92 | bogdan8938 | 1:47.35 | 47 | 17 |
| 93 | Kosvid | 1:47.37 | 41 | 15 |
| 94 | codename_rb | 1:47.38 | 36 | 13 |
| 95 | Ribbitt | 1:47.41 | 31 | 11 |
| 96 | Spokeek | 1:47.42 | 26 | 9 |
| 97 | r4pt0r | 1:47.45 | 21 | 8 |
| 98 | Crespojazzman | 1:47.51 | 16 | 6 |
| 99 | Waterproof | 1:47.54 | 11 | 4 |
| 100 | Da Doom Man | 1:47.55 | 6 | 2 |
| 100 | Idle Asides | 1:47.55 | 6 | 2 |
| 102 | GLUBBA | 1:47.64 | 0 | 0 |
| 103 | Lex Solhaime | 1:47.70 | 0 | 0 |
| 104 | Tiyenti | 1:47.72 | 0 | 0 |
| 105 | Heyzone | 1:47.75 | 0 | 0 |
| 106 | Zero | 1:47.77 | 0 | 0 |
| 106 | EndlessGaming | 1:47.77 | 0 | 0 |
| 108 | i0nTempest | 1:47.78 | 0 | 0 |
| 109 | Epsilon_Knight | 1:47.85 | 0 | 0 |
| 110 | Backgrounds' | 1:47.91 | 0 | 0 |
| 111 | Kierahn_ | 1:47.94 | 0 | 0 |
| 112 | TP-N.co PC-118 B-10001110101 | 1:48.00 | 0 | 0 |
| 113 | G5TNo2486 | 1:48.16 | 0 | 0 |
| 114 | Ghostcapin | 1:48.43 | 0 | 0 |
| 115 | Vyneci | 1:48.54 | 0 | 0 |
| 116 | Tomacawk | 1:48.59 | 0 | 0 |
| 117 | Lud | Forest | 1:48.86 | 0 | 0 |
| 118 | NoraNoShika | 1:49.02 | 0 | 0 |
| 119 | Songbird Serenade | 1:49.04 | 0 | 0 |
| 120 | HeavenTrain | 1:49.05 | 0 | 0 |
| 121 | kyle1elyk | 1:49.09 | 0 | 0 |
| 122 | khrisround2 | 1:49.34 | 0 | 0 |
| 123 | Viridian | 1:49.42 | 0 | 0 |
| 124 | rbrules | 1:49.46 | 0 | 0 |
| 125 | HyperNova | 1:49.61 | 0 | 0 |
| 126 | Lor | 1:49.70 | 0 | 0 |
| 127 | Embylles | 1:49.73 | 0 | 0 |
| 128 | PenguinMafia | 1:49.78 | 0 | 0 |
| 129 | G9 | 1:49.89 | 0 | 0 |
| 130 | SlowScan | 1:50.17 | 0 | 0 |
| 131 | Viridus | 1:50.27 | 0 | 0 |
| 132 | Liamzy | 1:50.34 | 0 | 0 |
| 133 | OvertheXtreme | 1:50.90 | 0 | 0 |
| 134 | NaCl Overdose | 1:51.00 | 0 | 0 |
| 134 | Cody | 1:51.00 | 0 | 0 |
| 136 | Khailz | 1:51.02 | 0 | 0 |
| 137 | Angry Uber Driver | 1:51.07 | 0 | 0 |
| 138 | Macinteuch Plus | 1:51.25 | 0 | 0 |
| 138 | HeliosMagi | 1:51.25 | 0 | 0 |
| 140 | Aleante | 1:51.26 | 0 | 0 |
| 141 | Latapi | 1:51.31 | 0 | 0 |
| 142 | Muggestutz | 1:51.53 | 0 | 0 |
| 143 | LordBohne2 | 1:51.54 | 0 | 0 |
| 144 | puter #MTWD | 1:52.07 | 0 | 0 |
| 145 | Aure | 1:52.09 | 0 | 0 |
| 146 | Ennik | 1:52.20 | 0 | 0 |
| 147 | Dorey348 | 1:52.47 | 0 | 0 |
| 148 | Azem_of_Earth | 1:52.68 | 0 | 0 |
| 149 | Zephyr | 1:52.73 | 0 | 0 |
| 150 | MrUnbecoming | 1:53.08 | 0 | 0 |
| 151 | Ultimate Level 100 Vegan Wizard | 1:53.12 | 0 | 0 |
| 152 | itsukarine | 1:53.14 | 0 | 0 |
| 153 | Yak-Yo! | 1:53.19 | 0 | 0 |
| 154 | Samn | 1:53.45 | 0 | 0 |
| 155 | Hirochi | 1:53.67 | 0 | 0 |
| 156 | Andy95 | 1:53.69 | 0 | 0 |
| 157 | youtube vembress | 1:53.81 | 0 | 0 |
| 158 | No | 1:54.04 | 0 | 0 |
| 159 | OLDMAN-YOOK | 1:54.09 | 0 | 0 |
| 160 | Vegetable Broth | 1:54.15 | 0 | 0 |
| 161 | Indy1984 | 1:54.20 | 0 | 0 |
| 162 | slug ʕ●.●ʔ | 1:54.24 | 0 | 0 |
| 163 | Lucas "HyPeRXKo" | 1:54.35 | 0 | 0 |
| 164 | Nico | 1:54.36 | 0 | 0 |
| 165 | FlyingToaster1 | 1:54.38 | 0 | 0 |
| 166 | But we're both girls! | 1:54.60 | 0 | 0 |
| 167 | Weird Pumpkin | 1:54.65 | 0 | 0 |
| 168 | Alrunes | 1:54.67 | 0 | 0 |
| 169 | Raiden925 | 1:54.82 | 0 | 0 |
| 170 | NaCl.The Baka | 1:54.90 | 0 | 0 |
| 171 | FedeedeF | 1:54.96 | 0 | 0 |
| 172 | Verendus | 1:55.02 | 0 | 0 |
| 172 | Kitsune's_GALAXY | 1:55.02 | 0 | 0 |
| 174 | Birb | 1:55.21 | 0 | 0 |
| 175 | pcl219 | 1:55.33 | 0 | 0 |
| 176 | Big Biscuit | 1:55.60 | 0 | 0 |
| 177 | Benji | 1:55.63 | 0 | 0 |
| 177 | achoo | 1:55.63 | 0 | 0 |
| 179 | snugglebottom | 1:56.10 | 0 | 0 |
| 180 | Benji | 1:56.20 | 0 | 0 |
| 181 | gwenaël | 1:56.22 | 0 | 0 |
| 182 | Jeff The NERD | 1:56.25 | 0 | 0 |
| 183 | Sooth | 1:56.29 | 0 | 0 |
| 184 | skuzzzy | 1:56.34 | 0 | 0 |
| 185 | Wadsy | 1:56.35 | 0 | 0 |
| 185 | MarsDevastater | 1:56.35 | 0 | 0 |
| 187 | kashyyyke | 1:56.39 | 0 | 0 |
| 188 | Tuli | 1:56.63 | 0 | 0 |
| 189 | Krull | 1:56.83 | 0 | 0 |
| 190 | Curious Fish | 1:56.97 | 0 | 0 |
| 191 | ant | 1:57.07 | 0 | 0 |
| 192 | SKOOKS | 1:57.12 | 0 | 0 |
| 193 | VectorBot | 1:57.22 | 0 | 0 |
| 194 | Cerberus14 | 1:57.29 | 0 | 0 |
| 195 | Raxus | 1:57.36 | 0 | 0 |
| 196 | RenokK | 1:57.72 | 0 | 0 |
| 196 | Eonic | 1:57.72 | 0 | 0 |
| 198 | Despo_357 | 1:57.73 | 0 | 0 |
| 199 | Silver~ | 1:57.83 | 0 | 0 |
| 200 | CrazyMaurice120 | 1:57.98 | 0 | 0 |
| 201 | Rusty | 1:58.02 | 0 | 0 |
| 202 | Ironside451 | 1:58.07 | 0 | 0 |
| 203 | Squidy_Blu | 1:58.09 | 0 | 0 |
| 204 | Spearmint | 1:58.18 | 0 | 0 |
| 205 | cheesymantisfondue | 1:58.56 | 0 | 0 |
| 206 | Osbob | 1:58.60 | 0 | 0 |
| 207 | Leviticus Blue | 1:58.84 | 0 | 0 |
| 208 | Sev | 1:58.96 | 0 | 0 |
| 209 | Jezo | 1:59.03 | 0 | 0 |
| 210 | sasha | 1:59.16 | 0 | 0 |
| 211 | Wolf | 1:59.29 | 0 | 0 |
| 212 | RL | 1:59.36 | 0 | 0 |
| 213 | Extreme Pajamas | 1:59.40 | 0 | 0 |
| 214 | Xiooo | 1:59.48 | 0 | 0 |
| 215 | Talesbros | 1:59.49 | 0 | 0 |
| 216 | Iris | 1:59.56 | 0 | 0 |
| 217 | MrMister | 1:59.63 | 0 | 0 |
| 218 | Foxivael | 1:59.72 | 0 | 0 |
| 219 | one singular jerboa | 1:59.74 | 0 | 0 |
| 220 | sendthefish | 1:59.75 | 0 | 0 |
| 221 | WolfBoi | 1:59.79 | 0 | 0 |
| 222 | ENDER [BOT] | 1:59.84 | 0 | 0 |
| 223 | BlacKat | 1:59.90 | 0 | 0 |
| 224 | RetaliationGuy YT | 1:59.95 | 0 | 0 |
| 225 | nepvee | 2:00.29 | 0 | 0 |
| 226 | Hannu Hanhi | 2:00.35 | 0 | 0 |
| 227 | FRX | 2:00.36 | 0 | 0 |
| 228 | FLUFYbluBUNYman | 2:00.70 | 0 | 0 |
| 229 | Shamus | 2:00.72 | 0 | 0 |
| 229 | Glas | 2:00.72 | 0 | 0 |
| 229 | Papa Scorch | 2:00.72 | 0 | 0 |
| 232 | Qioury | 2:01.05 | 0 | 0 |
| 233 | Predatory_Balloon | 2:01.31 | 0 | 0 |
| 234 | Saint Pierre | 2:01.34 | 0 | 0 |
| 235 | Filounderstover | 2:01.39 | 0 | 0 |
| 236 | Simon Evo | 2:01.41 | 0 | 0 |
| 236 | Mr.Derp | 2:01.41 | 0 | 0 |
| 238 | Myogi Night | 2:01.74 | 0 | 0 |
| 239 | TheIllusiveGreg | 2:01.78 | 0 | 0 |
| 240 | Cmacle | 2:02.08 | 0 | 0 |
| 241 | Corecii | 2:02.37 | 0 | 0 |
| 242 | Minefreak6633 | 2:03.06 | 0 | 0 |
| 243 | CheesyCherd | 2:03.56 | 0 | 0 |
| 244 | SherryCoco♪♫ | 2:03.62 | 0 | 0 |
| 245 | WiteNite | 2:03.69 | 0 | 0 |
| 246 | TheWanderer05 | 2:03.79 | 0 | 0 |
| 247 | Ultor | 2:03.89 | 0 | 0 |
| 248 | ^1WᴀʀᴘWɪʀᴇ | 2:03.98 | 0 | 0 |
| 249 | Its_Just_Dave | 2:04.01 | 0 | 0 |
| 250 | TheBoredguyyy | 2:04.45 | 0 | 0 |
| 251 | Spaceburger | 2:04.54 | 0 | 0 |
| 252 | cerberus❤ | 2:04.59 | 0 | 0 |
| 253 | DeathsEye | 2:04.63 | 0 | 0 |
| 254 | BigThirsty | 2:04.64 | 0 | 0 |
| 255 | Finmorr | 2:04.69 | 0 | 0 |
| 256 | SIVVIETH | 2:04.85 | 0 | 0 |
| 257 | lunaxiu | 2:05.07 | 0 | 0 |
| 258 | phfphefph | 2:05.53 | 0 | 0 |
| 259 | Uganda Knuckles | 2:05.61 | 0 | 0 |
| 260 | Müllabholer | 2:05.77 | 0 | 0 |
| 261 | Sogram | 2:05.90 | 0 | 0 |
| 262 | tigerchef123 | 2:06.47 | 0 | 0 |
| 263 | Ae1oURed | 2:06.50 | 0 | 0 |
| 264 | Beskar | 2:06.55 | 0 | 0 |
| 264 | Cptnbean | 2:06.55 | 0 | 0 |
| 266 | Гвоздь | 2:06.56 | 0 | 0 |
| 267 | James "Papa Het" Hetfield | 2:06.60 | 0 | 0 |
| 268 | Hungolomghononoloughongous | 2:06.64 | 0 | 0 |
| 269 | C4tch | 2:06.73 | 0 | 0 |
| 270 | Dorphan | 2:06.86 | 0 | 0 |
| 271 | MicroStutterEngine | 2:07.02 | 0 | 0 |
| 272 | SneakyBombsuit | 2:07.06 | 0 | 0 |
| 273 | Jam Over | 2:07.13 | 0 | 0 |
| 274 | Dislin | 2:07.24 | 0 | 0 |
| 275 | JacquetheRipper | 2:07.50 | 0 | 0 |
| 276 | Void Concept | 2:07.58 | 0 | 0 |
| 277 | Astel | 2:07.98 | 0 | 0 |
| 278 | Therio | 2:08.16 | 0 | 0 |
| 279 | Earthnuker | 2:08.33 | 0 | 0 |
| 280 | Bozer | 2:08.40 | 0 | 0 |
| 281 | Potted Mushroom | 2:08.65 | 0 | 0 |
| 282 | GabrielLivesHere | 2:08.76 | 0 | 0 |
| 283 | Fleabag | 2:08.79 | 0 | 0 |
| 284 | MCrekna1 | 2:08.88 | 0 | 0 |
| 285 | Keiyo | 2:08.92 | 0 | 0 |
| 286 | CuddleStrike | 2:08.94 | 0 | 0 |
| 286 | [Lard] Kriltch | 2:08.94 | 0 | 0 |
| 288 | Yoshi | 2:08.95 | 0 | 0 |
| 289 | DROCHEPOLK | 2:09.08 | 0 | 0 |
| 290 | Viking_king | 2:09.34 | 0 | 0 |
| 291 | Kashuzu | 2:09.64 | 0 | 0 |
| 292 | Squalo | 2:09.67 | 0 | 0 |
| 293 | Sunaryt | 2:09.73 | 0 | 0 |
| 294 | Grav | 2:09.78 | 0 | 0 |
| 295 | SKRUZO | 2:09.80 | 0 | 0 |
| 296 | Angel | 2:09.86 | 0 | 0 |
| 297 | Sniggles | 2:09.96 | 0 | 0 |
| 298 | The Good Gaming Dragon | 2:10.03 | 0 | 0 |
| 299 | Dubblr | 2:10.37 | 0 | 0 |
| 300 | DefenderOfHyrule | 2:10.50 | 0 | 0 |
| 301 | Horcrux | 2:10.54 | 0 | 0 |
| 302 | Readek | 2:10.70 | 0 | 0 |
| 303 | Professional Creed Enjoyer | 2:10.97 | 0 | 0 |
| 304 | Ciel | 2:11.28 | 0 | 0 |
| 305 | Tech Priest | 2:11.53 | 0 | 0 |
| 306 | Hopes | 2:11.84 | 0 | 0 |
| 307 | Machine Entity | 2:12.24 | 0 | 0 |
| 308 | WorkingChickenMH | 2:12.29 | 0 | 0 |
| 309 | Blahaj Blast | 2:12.40 | 0 | 0 |
| 309 | Fabio | 2:12.40 | 0 | 0 |
| 311 | LobaDK | 2:12.54 | 0 | 0 |
| 312 | MLGSOLAIRENOSCOPE360PRAISEIT420 | 2:12.64 | 0 | 0 |
| 313 | Liningcorn9 | 2:12.68 | 0 | 0 |
| 314 | ash | 2:12.86 | 0 | 0 |
| 315 | Moon | 2:13.15 | 0 | 0 |
| 316 | Crubo | 2:13.16 | 0 | 0 |
| 317 | Iggulden | 2:13.25 | 0 | 0 |
| 318 | AirTech | 2:13.48 | 0 | 0 |
| 319 | 16aroth6 | 2:13.54 | 0 | 0 |
| 320 | B-VOL | 2:13.63 | 0 | 0 |
| 321 | Lady Vira | 2:13.68 | 0 | 0 |
| 322 | The Big Purple | 2:13.70 | 0 | 0 |
| 323 | Peka | 2:14.01 | 0 | 0 |
| 324 | cocob4 | 2:14.12 | 0 | 0 |
| 325 | Pipsibean | 2:14.14 | 0 | 0 |
| 326 | SickB | 2:14.28 | 0 | 0 |
| 327 | Slotherium | 2:14.63 | 0 | 0 |
| 328 | Giant From The East | 2:14.80 | 0 | 0 |
| 329 | ErzoopaRTR | 2:14.94 | 0 | 0 |
| 330 | bread | 2:15.02 | 0 | 0 |
| 331 | Frozen Dino | 2:15.11 | 0 | 0 |
| 332 | Rocket Lad | 2:15.19 | 0 | 0 |
| 333 | LittleKittyArtemis | 2:15.36 | 0 | 0 |
| 334 | < blank > | 2:15.64 | 0 | 0 |
| 335 | jetknife | 2:15.88 | 0 | 0 |
| 336 | Arn-Mulet | 2:15.90 | 0 | 0 |
| 337 | T8Destroyer | 2:16.04 | 0 | 0 |
| 338 | Greenfire DX | 2:16.13 | 0 | 0 |
| 339 | Iron_Angmar | 2:16.51 | 0 | 0 |
| 340 | Valankor | 2:16.78 | 0 | 0 |
| 341 | O' The Iron E | 2:17.43 | 0 | 0 |
| 342 | pigpenguin | 2:17.56 | 0 | 0 |
| 343 | zanity | 2:17.58 | 0 | 0 |
| 344 | A Live Studio Audience | 2:17.79 | 0 | 0 |
| 345 | Lémohn | 2:17.99 | 0 | 0 |
| 346 | Nagrom | 2:18.02 | 0 | 0 |
| 347 | Rombommind | 2:18.06 | 0 | 0 |
| 348 | Mr Elusive | 2:18.08 | 0 | 0 |
| 349 | Midnight | 2:18.25 | 0 | 0 |
| 350 | James1975 | 2:18.40 | 0 | 0 |
| 351 | Sbev | 2:18.50 | 0 | 0 |
| 352 | Thing 1 | 2:18.58 | 0 | 0 |
| 353 | Cieon | 2:18.62 | 0 | 0 |
| 354 | Tydaxer | 2:18.71 | 0 | 0 |
| 355 | Reconik | 2:18.72 | 0 | 0 |
| 356 | Ruinoterapevt | 2:18.77 | 0 | 0 |
| 356 | Shaka | 2:18.77 | 0 | 0 |
| 358 | gusforester | 2:18.84 | 0 | 0 |
| 359 | SmackinCheese | 2:19.01 | 0 | 0 |
| 360 | CygnusAutomata | 2:19.13 | 0 | 0 |
| 361 | Dragnar The Meme God | 2:19.15 | 0 | 0 |
| 362 | -≺Zinc≻- | 2:19.39 | 0 | 0 |
| 363 | kildert5 | 2:19.56 | 0 | 0 |
| 364 | Mr Alves | 2:19.62 | 0 | 0 |
| 365 | GekoKid | 2:19.84 | 0 | 0 |
| 366 | Wayne | 2:19.88 | 0 | 0 |
| 367 | Dimitri | 2:19.99 | 0 | 0 |
| 368 | Sébastien Lecornu II | 2:20.36 | 0 | 0 |
| 369 | Klaneoa | 2:20.37 | 0 | 0 |
| 370 | Uni | 2:20.73 | 0 | 0 |
| 371 | CasanovaFly94 | 2:20.89 | 0 | 0 |
| 372 | Lore maker | 2:21.40 | 0 | 0 |
| 373 | ILikeBigBoats | 2:21.41 | 0 | 0 |
| 374 | miro. | 2:21.57 | 0 | 0 |
| 375 | Dahhkick | 2:21.65 | 0 | 0 |
| 376 | Splatsune Miku | 2:21.75 | 0 | 0 |
| 377 | Sayukki | 2:21.97 | 0 | 0 |
| 378 | males*icide | 2:22.18 | 0 | 0 |
| 379 | 🌪Dashie010203🌪 | 2:22.26 | 0 | 0 |
| 379 | Pureception | 2:22.26 | 0 | 0 |
| 381 | CodedCrow | 2:22.46 | 0 | 0 |
| 382 | Enzyme Machine | 2:22.61 | 0 | 0 |
| 383 | fxskill | 2:22.80 | 0 | 0 |
| 384 | concil | 2:23.05 | 0 | 0 |
| 385 | krakentoa | 2:23.16 | 0 | 0 |
| 386 | moth | 2:23.44 | 0 | 0 |
| 387 | e⁻ | 2:23.54 | 0 | 0 |
| 388 | Gomorrha | 2:23.90 | 0 | 0 |
| 389 | GTNeon | 2:24.02 | 0 | 0 |
| 390 | AVeryTastyCactus | 2:24.37 | 0 | 0 |
| 391 | // Vaffe | 2:24.47 | 0 | 0 |
| 392 | Wizard the Wizard | 2:24.53 | 0 | 0 |
| 393 | Its Blaster | 2:24.58 | 0 | 0 |
| 394 | Pompous Whale | 2:24.75 | 0 | 0 |
| 395 | Orion | 2:24.79 | 0 | 0 |
| 396 | Erwan | 2:24.83 | 0 | 0 |
| 397 | FifteenBread | 2:25.25 | 0 | 0 |
| 398 | MyurrDurr | 2:25.36 | 0 | 0 |
| 399 | Líong Phük | 2:25.54 | 0 | 0 |
| 400 | JuneBei | 2:25.78 | 0 | 0 |
| 401 | UncleJibJab | 2:25.85 | 0 | 0 |
| 402 | Me an intellectual | 2:25.87 | 0 | 0 |
| 403 | AnalBreacher | 2:26.13 | 0 | 0 |
| 404 | snakeeye98 | 2:26.36 | 0 | 0 |
| 405 | Well Shit | 2:26.59 | 0 | 0 |
| 406 | Big Chungus2010 | 2:27.05 | 0 | 0 |
| 407 | Oblivious | 2:27.18 | 0 | 0 |
| 408 | Skye | 2:27.71 | 0 | 0 |
| 409 | SIGSTACKFAULT | 2:27.85 | 0 | 0 |
| 410 | 문경왕개미 | 2:28.15 | 0 | 0 |
| 411 | Vencer_FRC | 2:28.34 | 0 | 0 |
| 412 | russ117 | 2:28.46 | 0 | 0 |
| 413 | worker bee mentality | 2:28.60 | 0 | 0 |
| 414 | LillianaMirrors | 2:28.63 | 0 | 0 |
| 415 | Noah | 2:28.70 | 0 | 0 |
| 416 | PuReCha0s | 2:28.77 | 0 | 0 |
| 417 | baakstaff | 2:29.25 | 0 | 0 |
| 418 | Seinah | 2:29.32 | 0 | 0 |
| 419 | ✱ Ale | 2:29.62 | 0 | 0 |
| 420 | hoppersthree | 2:29.78 | 0 | 0 |
| 421 | imxRaven | 2:29.81 | 0 | 0 |
| 422 | DobreBobre | 2:29.93 | 0 | 0 |
| 423 | samson13 | 2:29.95 | 0 | 0 |
| 424 | Silvyanna | 2:30.03 | 0 | 0 |
| 425 | Anvilanche | 2:30.23 | 0 | 0 |
| 426 | earlyburrd | 2:30.34 | 0 | 0 |
| 427 | Rudik | 2:30.47 | 0 | 0 |
| 428 | TheEPROM9 LaTeX | 2:30.99 | 0 | 0 |
| 429 | Apocalyptic Bunny | 2:31.29 | 0 | 0 |
| 430 | Gage | 2:32.10 | 0 | 0 |
| 431 | Ashton_bro | 2:32.43 | 0 | 0 |
| 432 | Panapanapana🐾🐾🐾 | 2:32.45 | 0 | 0 |
| 433 | Emerald_Pick | 2:32.49 | 0 | 0 |
| 434 | Eikunai | 2:32.74 | 0 | 0 |
| 435 | LordDude | 2:32.77 | 0 | 0 |
| 436 | Vick | 2:33.01 | 0 | 0 |
| 437 | NIRV007 | 2:33.38 | 0 | 0 |
| 438 | SilverRexy❤ | 2:33.40 | 0 | 0 |
| 439 | Dr. Weaver | 2:33.53 | 0 | 0 |
| 440 | Tesselode | 2:33.60 | 0 | 0 |
| 441 | Sunchipp Games | 2:33.85 | 0 | 0 |
| 442 | Tavere | 2:34.41 | 0 | 0 |
| 443 | microwave asmr | 2:34.53 | 0 | 0 |
| 444 | Flaminglump | 2:35.37 | 0 | 0 |
| 445 | MAMMON | 2:35.77 | 0 | 0 |
| 446 | Your Werewolf GF | 2:35.80 | 0 | 0 |
| 446 | lfighter | 2:35.80 | 0 | 0 |
| 448 | Myliaa | 2:36.04 | 0 | 0 |
| 449 | ThanksForNothing | 2:36.50 | 0 | 0 |
| 450 | IDARIN™ | 2:36.56 | 0 | 0 |
| 451 | raviolifun | 2:36.60 | 0 | 0 |
| 452 | Logix | 2:36.84 | 0 | 0 |
| 453 | FramedMic | 2:36.91 | 0 | 0 |
| 454 | PatTheHyruler | 2:37.38 | 0 | 0 |
| 455 | YoloMoth | 2:38.01 | 0 | 0 |
| 456 | jmdajm7 | 2:38.10 | 0 | 0 |
| 457 | Zodijackyl Light | 2:38.36 | 0 | 0 |
| 458 | STStarkMB | 2:38.40 | 0 | 0 |
| 459 | Aureliayk | 2:38.51 | 0 | 0 |
| 460 | Thr | 2:38.59 | 0 | 0 |
| 461 | Ziiryu | 2:38.63 | 0 | 0 |
| 462 | Redrex786 | 2:38.82 | 0 | 0 |
| 463 | codythecoder | 2:38.99 | 0 | 0 |
| 464 | Reisender | 2:39.04 | 0 | 0 |
| 465 | Fz0077 | 2:39.26 | 0 | 0 |
| 466 | NamedPlayer | 2:39.28 | 0 | 0 |
| 467 | Symon | 2:39.35 | 0 | 0 |
| 468 | spb1234 | 2:39.37 | 0 | 0 |
| 469 | Chase | 2:39.53 | 0 | 0 |
| 470 | P0LL0 | 2:39.58 | 0 | 0 |
| 471 | le0n | 2:39.96 | 0 | 0 |
| 472 | TurboPasta | 2:40.37 | 0 | 0 |
| 473 | Slater | 2:40.56 | 0 | 0 |
| 474 | Jepplez | 2:40.62 | 0 | 0 |
| 475 | fleim | 2:40.81 | 0 | 0 |
| 476 | Pepper, Belle M.D. | 2:41.12 | 0 | 0 |
| 477 | s00 | 2:41.66 | 0 | 0 |
| 478 | puca | 2:41.87 | 0 | 0 |
| 479 | ArtIbex | 2:42.10 | 0 | 0 |
| 479 | Dracheron | 2:42.10 | 0 | 0 |
| 481 | PlΣXi | 2:42.18 | 0 | 0 |
| 482 | StrongBad | 2:42.53 | 0 | 0 |
| 483 | Ame | 2:42.63 | 0 | 0 |
| 484 | Gaaratoncul (Will) | 2:42.70 | 0 | 0 |
| 485 | Jarek718 | 2:42.78 | 0 | 0 |
| 486 | Chamango | 2:42.92 | 0 | 0 |
| 487 | Jukey J | 2:42.93 | 0 | 0 |
| 488 | JDthe3rd | 2:43.30 | 0 | 0 |
| 488 | ONLY STRAIGHT IS NORMAL, FREAKS! | 2:43.30 | 0 | 0 |
| 490 | Alopex | 2:43.84 | 0 | 0 |
| 491 | [NR] Miyu012 | 2:43.97 | 0 | 0 |
| 492 | Treme | 2:44.39 | 0 | 0 |
| 493 | Michelangelo | 2:44.41 | 0 | 0 |
| 494 | Elderas | 2:44.51 | 0 | 0 |
| 495 | bmrc97 | 2:44.66 | 0 | 0 |
| 496 | MechaFemboy | 2:45.00 | 0 | 0 |
| 496 | Bean Buscus | 2:45.00 | 0 | 0 |
| 498 | lav. | 2:45.01 | 0 | 0 |
| 499 | gp | 2:45.10 | 0 | 0 |
| 500 | h | 2:45.19 | 0 | 0 |
| 501 | Mud | 2:45.36 | 0 | 0 |
| 502 | Sunburnt Cyclops | 2:45.74 | 0 | 0 |
| 503 | Enso | 2:46.22 | 0 | 0 |
| 504 | Maszo Pok | 2:46.36 | 0 | 0 |
| 505 | Psychlone | 2:46.54 | 0 | 0 |
| 506 | Swash | 2:46.87 | 0 | 0 |
| 507 | Seath Salt | 2:47.07 | 0 | 0 |
| 508 | Dust | 2:47.64 | 0 | 0 |
| 509 | Efeyabel | 2:47.78 | 0 | 0 |
| 510 | Courier Six | 2:47.95 | 0 | 0 |
| 511 | OK | 2:48.39 | 0 | 0 |
| 512 | Maj. Pegger | 2:48.56 | 0 | 0 |
| 513 | el0c | 2:48.61 | 0 | 0 |
| 514 | ExiledGen | 2:48.70 | 0 | 0 |
| 515 | Ay Scruh Jum Lord | 2:48.88 | 0 | 0 |
| 516 | CMDRVITELL | 2:48.89 | 0 | 0 |
| 517 | Joos | 2:49.10 | 0 | 0 |
| 518 | GameSmith | 2:49.13 | 0 | 0 |
| 518 | Oldman | 2:49.13 | 0 | 0 |
| 518 | BigToni | 2:49.13 | 0 | 0 |
| 521 | Meda | 2:49.40 | 0 | 0 |
| 522 | [T-PP] PhiniksPlays | 2:49.42 | 0 | 0 |
| 523 | Skizz | 2:49.44 | 0 | 0 |
| 524 | Sartha | 2:49.50 | 0 | 0 |
| 525 | TheHighOverlord | 2:49.64 | 0 | 0 |
| 526 | Amniotus | 2:49.74 | 0 | 0 |
| 527 | forestbeasts | 2:50.35 | 0 | 0 |
| 528 | 429-3Ply | 2:50.62 | 0 | 0 |
| 529 | "ORION | 2:50.67 | 0 | 0 |
| 530 | NuggetTheBigBoi | 2:50.91 | 0 | 0 |
| 531 | Feanor | 2:50.93 | 0 | 0 |
| 532 | S.Kappelmann | 2:51.24 | 0 | 0 |
| 533 | SarnPyrren | 2:51.44 | 0 | 0 |
| 534 | Velimor | 2:51.63 | 0 | 0 |
| 535 | Boucoque | 2:52.21 | 0 | 0 |
| 536 | l2uStefka | 2:52.58 | 0 | 0 |
| 537 | ultravirus | 2:52.65 | 0 | 0 |
| 538 | Reaster | 2:53.21 | 0 | 0 |
| 539 | Lee | 2:53.30 | 0 | 0 |
| 540 | NoBody | 2:53.34 | 0 | 0 |
| 541 | Troligy | 2:53.36 | 0 | 0 |
| 542 | MintyFreshFries | 2:53.80 | 0 | 0 |
| 543 | Raisinbran | 2:53.92 | 0 | 0 |
| 544 | [Divina Dea] | 2:53.94 | 0 | 0 |
| 545 | ... | 2:54.48 | 0 | 0 |
| 546 | NeraKitsune | 2:55.07 | 0 | 0 |
| 547 | Toni Teilzeit | 2:55.17 | 0 | 0 |
| 548 | Caradog | 2:55.39 | 0 | 0 |
| 549 | Quinn | 2:55.44 | 0 | 0 |
| 549 | rainbow dash Crazy 👽 | 2:55.44 | 0 | 0 |
| 551 | fischpferd | 2:56.12 | 0 | 0 |
| 552 | SinisterSquid | 2:56.64 | 0 | 0 |
| 553 | Twaddle | 2:56.68 | 0 | 0 |
| 554 | Cheeseburger Charles | 2:56.69 | 0 | 0 |
| 555 | TheDeco | 2:56.96 | 0 | 0 |
| 556 | Awivlin | 2:57.28 | 0 | 0 |
| 557 | Rei | 2:58.02 | 0 | 0 |
| 558 | William "Black Fox" Hunter | 2:58.03 | 0 | 0 |
| 559 | <color=#00c9ff>Sans | 2:58.13 | 0 | 0 |
| 560 | Cookie Dealer | 2:58.26 | 0 | 0 |
| 561 | endergecko1218 | 2:58.43 | 0 | 0 |
| 562 | Sku11ss | 2:58.45 | 0 | 0 |
| 563 | Big Boi Bazunga | 2:59.01 | 0 | 0 |
| 564 | TeslaZar | 2:59.11 | 0 | 0 |
| 565 | Seere | 2:59.41 | 0 | 0 |
| 566 | Rip | 2:59.49 | 0 | 0 |
| 567 | vista_narvas | 2:59.73 | 0 | 0 |
| 568 | Heliomachit | 3:00.16 | 0 | 0 |
| 569 | [TSA] Siggi | 3:00.35 | 0 | 0 |
| 570 | Razgriez | 3:01.31 | 0 | 0 |
| 571 | < blank > | 3:01.61 | 0 | 0 |
| 572 | 76561198057281750 | 3:01.98 | 0 | 0 |
| 573 | Zenixic | 3:04.07 | 0 | 0 |
| 574 | TheDukeOfTaco | 3:04.71 | 0 | 0 |
| 575 | FyreWall | 3:05.60 | 0 | 0 |
| 576 | Sibsen | 3:05.61 | 0 | 0 |
| 577 | Kabach0rt | 3:05.85 | 0 | 0 |
| 578 | Stol | 3:06.16 | 0 | 0 |
| 579 | Turnabout Grag | 3:06.22 | 0 | 0 |
| 580 | Naikel [FR] | 3:06.86 | 0 | 0 |
| 581 | Black Bold Bee | 3:07.35 | 0 | 0 |
| 582 | Sayrix | 3:08.04 | 0 | 0 |
| 583 | Jiyuuma | 3:08.79 | 0 | 0 |
| 584 | Shadiest | 3:08.82 | 0 | 0 |
| 585 | Vampire | 3:09.40 | 0 | 0 |
| 586 | Pog ! | 3:09.55 | 0 | 0 |
| 587 | Rob98898 | 3:10.19 | 0 | 0 |
| 588 | Diabetis4life | 3:10.75 | 0 | 0 |
| 589 | burnheart1337 | 3:11.17 | 0 | 0 |
| 590 | Zab | 3:11.35 | 0 | 0 |
| 591 | Fat Orc | 3:11.71 | 0 | 0 |
| 592 | Foxnabo | 3:11.90 | 0 | 0 |
| 593 | Fugashi | 3:12.65 | 0 | 0 |
| 594 | Neon_Shift | 3:12.93 | 0 | 0 |
| 595 | CeruleanAzura | 3:13.19 | 0 | 0 |
| 596 | Blacky Stranger | 3:13.53 | 0 | 0 |
| 597 | [AGN] Commander Bert | 3:13.63 | 0 | 0 |
| 598 | CS | 3:14.03 | 0 | 0 |
| 599 | BuffBirdBoi | 3:14.34 | 0 | 0 |
| 600 | UltimateTone | 3:14.62 | 0 | 0 |
| 601 | icychkn | 3:15.05 | 0 | 0 |
| 602 | Vortexesz | 3:15.16 | 0 | 0 |
| 603 | Bananbulance | 3:15.23 | 0 | 0 |
| 604 | SkorpioneLv5Sa27 | 3:15.27 | 0 | 0 |
| 605 | Jean-Pule | 3:15.32 | 0 | 0 |
| 606 | Creme | 3:15.33 | 0 | 0 |
| 607 | KLABOEM | 3:16.07 | 0 | 0 |
| 608 | Neneko | 3:16.24 | 0 | 0 |
| 609 | ℛ𝓊𝓃𝑒 | 3:16.97 | 0 | 0 |
| 610 | Mega Mike 70 | 3:17.10 | 0 | 0 |
| 611 | That One Panda | 3:17.29 | 0 | 0 |
| 612 | Astrodynamics | 3:18.32 | 0 | 0 |
| 613 | blue42u | 3:18.39 | 0 | 0 |
| 614 | Rakmin | 3:18.59 | 0 | 0 |
| 615 | Alaskalúpína | 3:18.66 | 0 | 0 |
| 616 | Verus | 3:19.17 | 0 | 0 |
| 617 | Phaserlight | 3:19.96 | 0 | 0 |
| 618 | archdeco | 3:20.12 | 0 | 0 |
| 619 | Baja | 3:20.13 | 0 | 0 |
| 620 | Syfar | 3:21.12 | 0 | 0 |
| 621 | Positive Eggo | 3:21.45 | 0 | 0 |
| 622 | Biscuit ビスケット | 3:21.70 | 0 | 0 |
| 623 | Anerix (Paradox) Cormin Quanadol | 3:21.81 | 0 | 0 |
| 624 | pater riku | 3:21.92 | 0 | 0 |
| 625 | Honnse | 3:21.96 | 0 | 0 |
| 626 | Samma_FTW | TTV | 3:22.33 | 0 | 0 |
| 627 | frode | 3:23.00 | 0 | 0 |
| 628 | Roaddon | 3:23.65 | 0 | 0 |
| 629 | Amni | 3:23.69 | 0 | 0 |
| 630 | Yokai | 3:23.79 | 0 | 0 |
| 631 | Gamga | 3:23.85 | 0 | 0 |
| 632 | Xelas25 | 3:24.01 | 0 | 0 |
| 633 | Mr.Demosign | 3:24.04 | 0 | 0 |
| 634 | D36Digital-Ethereal | 3:24.45 | 0 | 0 |
| 635 | herz93 | 3:25.49 | 0 | 0 |
| 636 | Auario | 3:26.48 | 0 | 0 |
| 637 | GetEmOtterHere | 3:26.68 | 0 | 0 |
| 638 | Zelo101 | 3:27.04 | 0 | 0 |
| 639 | Naoroji | 3:27.74 | 0 | 0 |
| 640 | Joni_Jazz | 3:27.84 | 0 | 0 |
| 641 | Pteroborne | 3:28.81 | 0 | 0 |
| 642 | Jackrip | 3:29.11 | 0 | 0 |
| 643 | Alex97r | 3:29.56 | 0 | 0 |
| 644 | w0lfie_0 | 3:29.94 | 0 | 0 |
| 645 | Graviterium | 3:30.04 | 0 | 0 |
| 646 | Sensokaku | 3:30.44 | 0 | 0 |
| 647 | PIT! | 3:31.10 | 0 | 0 |
| 648 | MarkTheW0lf | 3:31.75 | 0 | 0 |
| 649 | koifishi | 3:32.70 | 0 | 0 |
| 650 | shrümii | 3:32.84 | 0 | 0 |
| 651 | Toppincattin | 3:32.93 | 0 | 0 |
| 652 | Poofoo | 3:33.00 | 0 | 0 |
| 653 | Stranth | 3:33.32 | 0 | 0 |
| 654 | mokkli | 3:34.31 | 0 | 0 |
| 655 | キング Raff 様 | 3:35.24 | 0 | 0 |
| 656 | The Flickering Remnant Effigy | 3:35.27 | 0 | 0 |
| 657 | Retropenguin | 3:35.73 | 0 | 0 |
| 658 | N҉o̷s̷t̷r̷a̷d̷a̷m̷u̷s | 3:35.77 | 0 | 0 |
| 659 | Meanguy6050 | 3:35.79 | 0 | 0 |
| 660 | calne | 3:36.54 | 0 | 0 |
| 661 | SparkyCrusader | 3:36.94 | 0 | 0 |
| 662 | Firverior | 3:37.23 | 0 | 0 |
| 663 | crimes.against.art | 3:37.60 | 0 | 0 |
| 664 | 🔵Aero | 3:37.90 | 0 | 0 |
| 665 | Xeros | 3:37.95 | 0 | 0 |
| 666 | Two Mad | 3:38.33 | 0 | 0 |
| 667 | HJQLF | 3:38.63 | 0 | 0 |
| 668 | D2C | Chrisc02 | 3:38.68 | 0 | 0 |
| 669 | doctor shaped sandwich | 3:39.34 | 0 | 0 |
| 670 | Sir Tech | 3:39.49 | 0 | 0 |
| 671 | BrandonK-TN | 3:39.63 | 0 | 0 |
| 672 | Adrián | 3:40.01 | 0 | 0 |
| 673 | *notices ur dreams* | 3:40.73 | 0 | 0 |
| 674 | hackerkok | 3:40.86 | 0 | 0 |
| 675 | De Poolse Jager | 3:41.02 | 0 | 0 |
| 676 | J-Zeus | 3:41.25 | 0 | 0 |
| 677 | throbbing_fish | 3:41.47 | 0 | 0 |
| 678 | fridgelessedard | 3:41.54 | 0 | 0 |
| 679 | Moon "nd Roses | 3:41.84 | 0 | 0 |
| 680 | Foul Energy | 3:43.78 | 0 | 0 |
| 681 | CoffeeGremlin | 3:46.08 | 0 | 0 |
| 682 | Hinglewingle Throatjuggler | 3:47.03 | 0 | 0 |
| 683 | The Dank Magician | 3:47.25 | 0 | 0 |
| 684 | yegor.zenkov | 3:48.29 | 0 | 0 |
| 685 | IsoSheepington | 3:49.12 | 0 | 0 |
| 686 | OilsTheBody | 3:49.17 | 0 | 0 |
| 687 | EnderKill98 | 3:50.35 | 0 | 0 |
| 688 | A̶͓̓z̷͓̍ũ̴̩r̷͔͐e̴ | 3:50.47 | 0 | 0 |
| 689 | Cirnopsys | 3:50.50 | 0 | 0 |
| 690 | MickyLangello | 3:50.57 | 0 | 0 |
| 691 | Simer_Soul | 3:50.71 | 0 | 0 |
| 692 | Bodacious Chugalug | 3:51.03 | 0 | 0 |
| 693 | xander | 3:51.64 | 0 | 0 |
| 694 | luck | 3:52.44 | 0 | 0 |
| 695 | OGJOHNNYBOBSON | 3:53.29 | 0 | 0 |
| 696 | Pirate | 3:53.43 | 0 | 0 |
| 697 | Blitz Pixel | 3:54.20 | 0 | 0 |
| 698 | SecretSchizoid | 3:54.61 | 0 | 0 |
| 699 | WolfGamesHD | 3:55.29 | 0 | 0 |
| 700 | Adm.XJIEBYIIIEK | 3:56.09 | 0 | 0 |
| 701 | Dylancyclone | 3:56.82 | 0 | 0 |
| 702 | Aldebaran | 3:57.53 | 0 | 0 |
| 703 | Woody | 3:57.55 | 0 | 0 |
| 704 | Xeno146 | 3:58.25 | 0 | 0 |
| 705 | energize | 3:58.93 | 0 | 0 |
| 706 | . | 3:59.16 | 0 | 0 |
| 707 | ?Y/N? | 4:00.00 | 0 | 0 |
| 708 | RSZ9 | 4:01.06 | 0 | 0 |
| 709 | tapmasterj14 | 4:02.77 | 0 | 0 |
| 709 | Roggee | 4:02.77 | 0 | 0 |
| 711 | Voltaic | 4:04.37 | 0 | 0 |
| 712 | Codemuster | 4:04.49 | 0 | 0 |
| 713 | RedRiotRoss | 4:04.62 | 0 | 0 |
| 714 | Jack the Druid | 4:05.16 | 0 | 0 |
| 715 | CozyKinguu | 4:05.38 | 0 | 0 |
| 716 | RDaneel | 4:05.86 | 0 | 0 |
| 717 | Pinapl | 4:06.71 | 0 | 0 |
| 718 | Leudic | 4:07.77 | 0 | 0 |
| 719 | Domorrow | 4:08.47 | 0 | 0 |
| 720 | Skrall' | 4:09.37 | 0 | 0 |
| 721 | Mejartion | 4:09.70 | 0 | 0 |
| 722 | Torja! | 4:10.35 | 0 | 0 |
| 723 | Cirix | 4:10.44 | 0 | 0 |
| 724 | Nemesis | 4:10.45 | 0 | 0 |
| 725 | Kwmart | 4:10.88 | 0 | 0 |
| 726 | Xheptor | 4:11.44 | 0 | 0 |
| 727 | Loreckine | 4:13.99 | 0 | 0 |
| 728 | Blex | 4:15.20 | 0 | 0 |
| 729 | i | 4:15.43 | 0 | 0 |
| 730 | Faucet Drinker Pro | 4:15.58 | 0 | 0 |
| 731 | AnimeHentaiYuriFanboy | 4:15.67 | 0 | 0 |
| 732 | Zen Fetcher | 4:16.14 | 0 | 0 |
| 733 | ÆX | 4:17.70 | 0 | 0 |
| 734 | Alpaca | 4:18.44 | 0 | 0 |
| 735 | Larochelle | 4:19.97 | 0 | 0 |
| 736 | Nick Elements | 4:21.05 | 0 | 0 |
| 737 | Shrimp Burrito | 4:22.04 | 0 | 0 |
| 738 | Kathumandu | 4:22.13 | 0 | 0 |
| 739 | Shrapnel Blatner | 4:23.87 | 0 | 0 |
| 740 | Deathbringer | 4:24.61 | 0 | 0 |
| 741 | Naut1lust | 4:28.69 | 0 | 0 |
| 742 | Loys Nuva | 4:29.02 | 0 | 0 |
| 743 | -Ω- | 4:29.27 | 0 | 0 |
| 744 | Void | 4:31.52 | 0 | 0 |
| 745 | potion | 4:33.58 | 0 | 0 |
| 746 | Lliane | 4:33.62 | 0 | 0 |
| 747 | Hrevff | 4:33.75 | 0 | 0 |
| 748 | Mrlong2 | 4:34.30 | 0 | 0 |
| 749 | Danionc | 4:34.39 | 0 | 0 |
| 750 | Chifra | 4:36.22 | 0 | 0 |
| 751 | Spagghettip | 4:36.25 | 0 | 0 |
| 752 | BlazeHedgehog | 4:39.77 | 0 | 0 |
| 753 | Caracarn | 4:43.37 | 0 | 0 |
| 754 | Madam SalBranella | 4:46.98 | 0 | 0 |
| 755 | Kamen Shrimper | 4:47.48 | 0 | 0 |
| 756 | MoondustIsPoison | 4:47.51 | 0 | 0 |
| 757 | fluttershyrulez77 | 4:47.96 | 0 | 0 |
| 758 | 大喵喵喵 | 4:50.70 | 0 | 0 |
| 759 | Captain Frosty | 4:52.22 | 0 | 0 |
| 760 | ☭ [MaxX_X] ☭ | 4:52.42 | 0 | 0 |
| 761 | Mr. Moebius | 4:52.81 | 0 | 0 |
| 762 | Aguadracon | 4:52.90 | 0 | 0 |
| 763 | Tom | 4:53.69 | 0 | 0 |
| 764 | CheesePimp | 4:54.25 | 0 | 0 |
| 765 | Thoughtless | 4:54.85 | 0 | 0 |
| 766 | Kiera | 4:57.31 | 0 | 0 |
| 767 | DrGouh | 4:58.03 | 0 | 0 |
| 768 | bluebandit21 | 4:59.55 | 0 | 0 |
| 769 | ⛤T̵R̸I̶X̷X̷X̷⛤ | 5:01.49 | 0 | 0 |
| 770 | ketikidistv | 5:01.61 | 0 | 0 |
| 771 | Johnnino | 5:02.74 | 0 | 0 |
| 772 | javi | 5:04.69 | 0 | 0 |
| 773 | chickenparma | 5:06.45 | 0 | 0 |
| 774 | RabbiT | 5:09.42 | 0 | 0 |
| 775 | Breezy ♠ | 5:11.57 | 0 | 0 |
| 776 | Creepersrock24Gaming | 5:22.47 | 0 | 0 |
| 777 | Ray | 5:22.86 | 0 | 0 |
| 778 | BlueKaiTheEnd | 5:22.94 | 0 | 0 |
| 779 | tortoise | 5:25.46 | 0 | 0 |
| 780 | zacsi | 5:25.82 | 0 | 0 |
| 781 | Kenbomb | 5:28.83 | 0 | 0 |
| 782 | absurdich | 5:30.20 | 0 | 0 |
| 783 | RainbowTheRanger | 5:30.35 | 0 | 0 |
| 784 | bimmer | 5:31.17 | 0 | 0 |
| 785 | Maagnatism | 5:33.46 | 0 | 0 |
| 786 | Nordblum | 5:36.08 | 0 | 0 |
| 787 | TTV TheOne647 | 5:36.69 | 0 | 0 |
| 788 | Jan | 5:41.14 | 0 | 0 |
| 789 | Artemis | 5:44.00 | 0 | 0 |
| 790 | eks7meks7 | 5:45.09 | 0 | 0 |
| 791 | Doorcrusher | 5:47.79 | 0 | 0 |
| 792 | Old Bastard | 5:49.12 | 0 | 0 |
| 793 | GroovyDoo | 5:49.41 | 0 | 0 |
| 794 | mirroryubel | 5:57.49 | 0 | 0 |
| 795 | frankzirk | 5:58.23 | 0 | 0 |
| 796 | Ultin00b | 6:05.68 | 0 | 0 |
| 797 | Sowlith | 6:06.68 | 0 | 0 |
| 798 | greenY | 6:11.39 | 0 | 0 |
| 799 | Bat Country | 6:11.86 | 0 | 0 |
| 800 | Yopdoggy | 6:12.05 | 0 | 0 |
| 801 | Boomer McGeezer | 6:12.11 | 0 | 0 |
| 802 | Arn | 6:13.16 | 0 | 0 |
| 803 | Lengray | 6:14.56 | 0 | 0 |
| 804 | Calcarious | 6:15.04 | 0 | 0 |
| 805 | Progeny of the Apocalypse | 6:16.55 | 0 | 0 |
| 806 | Connory | 6:31.65 | 0 | 0 |
| 807 | Maginomicon | 6:48.03 | 0 | 0 |
| 808 | 遠くの愛好家 | 6:50.28 | 0 | 0 |
| 809 | Your Fav Baka | 6:54.13 | 0 | 0 |
| 810 | ♠ Jin ♠ | 6:55.08 | 0 | 0 |
| 811 | Hmel | 7:04.00 | 0 | 0 |
| 812 | nightclubpositive | 7:15.47 | 0 | 0 |
| 813 | ivoryburrito | 7:20.54 | 0 | 0 |
| 814 | Ace Combo | 7:23.98 | 0 | 0 |
| 815 | MetalBruh | 7:42.76 | 0 | 0 |
| 816 | Biolume_Eater | 7:45.54 | 0 | 0 |
| 817 | Dog | 7:49.48 | 0 | 0 |
| 818 | Intellibastard | 7:59.43 | 0 | 0 |
| 819 | Fastolph | 8:27.77 | 0 | 0 |
| 820 | Gandalf the Moist | 8:30.96 | 0 | 0 |
| 821 | ViryGo19 | 9:24.76 | 0 | 0 |
| 822 | ♛𝓢𝓶𝓲𝓚♛ | 9:53.90 | 0 | 0 |
| 823 | Ballsniffiscent | 10:08.88 | 0 | 0 |
| 824 | h3artl3ss362 | 10:27.80 | 0 | 0 |
| 825 | RadioActiveToy | 11:42.42 | 0 | 0 |
| 826 | Chaks | 13:36.77 | 0 | 0 |
| 827 | foil | 14:26.11 | 0 | 0 |
| 828 | [JWL] STRAPONESQA | 14:53.22 | 0 | 0 |
| 829 | Bet0 | 17:24.46 | 0 | 0 |
HoldGrip